sensor_id;sensor_type;location;lat;lon;timestamp;pressure;altitude;pressure_sealevel;temperature;humidity
50292;BME280;36190;54.980;73.388;2022-08-19T00:01:19;100859.03;;;9.97;73.19
50292;BME280;36190;54.980;73.388;2022-08-19T00:03:47;100874.19;;;9.97;73.17
50292;BME280;36190;54.980;73.388;2022-08-19T00:06:15;100877.16;;;9.94;73.29
50292;BME280;36190;54.980;73.388;2022-08-19T00:08:44;100871.66;;;9.95;73.25
50292;BME280;36190;54.980;73.388;2022-08-19T00:11:11;100882.88;;;9.99;73.07
50292;BME280;36190;54.980;73.388;2022-08-19T00:13:39;100878.38;;;9.99;73.09
50292;BME280;36190;54.980;73.388;2022-08-19T00:16:07;100885.38;;;10.00;73.23
50292;BME280;36190;54.980;73.388;2022-08-19T00:18:35;100891.53;;;10.01;73.17
50292;BME280;36190;54.980;73.388;2022-08-19T00:21:02;100895.19;;;10.00;73.25
50292;BME280;36190;54.980;73.388;2022-08-19T00:23:34;100889.31;;;9.96;73.22
50292;BME280;36190;54.980;73.388;2022-08-19T00:26:04;100895.81;;;9.94;73.59
50292;BME280;36190;54.980;73.388;2022-08-19T00:28:32;100897.78;;;9.91;73.63
50292;BME280;36190;54.980;73.388;2022-08-19T00:31:01;100892.44;;;9.91;73.80
50292;BME280;36190;54.980;73.388;2022-08-19T00:33:30;100897.78;;;9.91;73.79
50292;BME280;36190;54.980;73.388;2022-08-19T00:35:58;100890.78;;;9.90;73.96
50292;BME280;36190;54.980;73.388;2022-08-19T00:38:25;100890.63;;;9.92;73.85
50292;BME280;36190;54.980;73.388;2022-08-19T00:40:53;100894.13;;;9.93;73.94
50292;BME280;36190;54.980;73.388;2022-08-19T00:43:24;100897.50;;;9.95;74.05
50292;BME280;36190;54.980;73.388;2022-08-19T00:45:53;100893.84;;;9.96;73.89
50292;BME280;36190;54.980;73.388;2022-08-19T00:48:21;100900.16;;;9.95;73.90
50292;BME280;36190;54.980;73.388;2022-08-19T00:50:50;100895.81;;;9.94;74.01
50292;BME280;36190;54.980;73.388;2022-08-19T00:53:22;100895.81;;;9.94;74.17
50292;BME280;36190;54.980;73.388;2022-08-19T00:55:53;100890.03;;;9.98;74.17
50292;BME280;36190;54.980;73.388;2022-08-19T00:58:27;100888.59;;;10.04;73.90
50292;BME280;36190;54.980;73.388;2022-08-19T01:00:55;100890.94;;;10.07;73.80
50292;BME280;36190;54.980;73.388;2022-08-19T01:03:23;100884.47;;;10.10;73.86
50292;BME280;36190;54.980;73.388;2022-08-19T01:05:52;100887.97;;;10.10;73.87
50292;BME280;36190;54.980;73.388;2022-08-19T01:08:21;100897.94;;;10.08;73.87
50292;BME280;36190;54.980;73.388;2022-08-19T01:10:50;100888.59;;;10.04;74.20
50292;BME280;36190;54.980;73.388;2022-08-19T01:13:21;100880.44;;;10.06;74.24
50292;BME280;36190;54.980;73.388;2022-08-19T01:15:52;100890.66;;;10.10;74.06
50292;BME280;36190;54.980;73.388;2022-08-19T01:18:22;100880.50;;;10.14;73.94
50292;BME280;36190;54.980;73.388;2022-08-19T01:20:50;100876.00;;;10.14;73.84
50292;BME280;36190;54.980;73.388;2022-08-19T01:23:20;100874.34;;;10.13;74.08
50292;BME280;36190;54.980;73.388;2022-08-19T01:26:09;100868.69;;;10.16;73.83
50292;BME280;36190;54.980;73.388;2022-08-19T01:28:37;100865.41;;;10.23;73.78
50292;BME280;36190;54.980;73.388;2022-08-19T01:31:05;100871.13;;;10.28;73.59
50292;BME280;36190;54.980;73.388;2022-08-19T01:33:33;100869.66;;;10.34;73.62
50292;BME280;36190;54.980;73.388;2022-08-19T01:36:06;100870.03;;;10.39;73.57
50292;BME280;36190;54.980;73.388;2022-08-19T01:38:36;100867.19;;;10.40;73.49
50292;BME280;36190;54.980;73.388;2022-08-19T01:41:04;100867.94;;;10.42;73.28
50292;BME280;36190;54.980;73.388;2022-08-19T01:43:33;100870.97;;;10.48;73.35
50292;BME280;36190;54.980;73.388;2022-08-19T01:46:01;100866.00;;;10.53;73.19
50292;BME280;36190;54.980;73.388;2022-08-19T01:48:33;100870.03;;;10.57;72.85
50292;BME280;36190;54.980;73.388;2022-08-19T01:51:01;100873.53;;;10.57;72.80
50292;BME280;36190;54.980;73.388;2022-08-19T01:53:29;100873.00;;;10.54;72.55
50292;BME280;36190;54.980;73.388;2022-08-19T01:55:58;100869.66;;;10.52;72.84
50292;BME280;36190;54.980;73.388;2022-08-19T01:58:28;100857.94;;;10.44;73.08
50292;BME280;36190;54.980;73.388;2022-08-19T02:00:57;100867.00;;;10.52;73.04
50292;BME280;36190;54.980;73.388;2022-08-19T02:03:25;100862.34;;;10.54;72.92
50292;BME280;36190;54.980;73.388;2022-08-19T02:05:56;100866.69;;;10.55;72.99
50292;BME280;36190;54.980;73.388;2022-08-19T02:08:25;100869.19;;;10.56;72.84
50292;BME280;36190;54.980;73.388;2022-08-19T02:10:53;100864.38;;;10.60;72.82
50292;BME280;36190;54.980;73.388;2022-08-19T02:13:22;100868.56;;;10.63;72.83
50292;BME280;36190;54.980;73.388;2022-08-19T02:15:50;100864.06;;;10.63;72.66
50292;BME280;36190;54.980;73.388;2022-08-19T02:18:18;100870.06;;;10.65;72.73
50292;BME280;36190;54.980;73.388;2022-08-19T02:20:46;100864.72;;;10.65;72.57
50292;BME280;36190;54.980;73.388;2022-08-19T02:23:14;100860.41;;;10.64;72.39
50292;BME280;36190;54.980;73.388;2022-08-19T02:25:43;100840.16;;;10.53;72.26
50292;BME280;36190;54.980;73.388;2022-08-19T02:28:11;100868.78;;;10.69;72.46
50292;BME280;36190;54.980;73.388;2022-08-19T02:30:41;100862.59;;;10.69;72.27
50292;BME280;36190;54.980;73.388;2022-08-19T02:33:08;100869.81;;;10.77;72.31
50292;BME280;36190;54.980;73.388;2022-08-19T02:35:35;100867.50;;;10.82;72.12
50292;BME280;36190;54.980;73.388;2022-08-19T02:38:03;100872.53;;;10.85;72.05
50292;BME280;36190;54.980;73.388;2022-08-19T02:40:49;100868.53;;;10.89;71.62
50292;BME280;36190;54.980;73.388;2022-08-19T02:43:18;100885.59;;;10.96;71.61
50292;BME280;36190;54.980;73.388;2022-08-19T02:45:49;100878.59;;;10.95;71.23
50292;BME280;36190;54.980;73.388;2022-08-19T02:48:17;100883.09;;;10.95;71.12
50292;BME280;36190;54.980;73.388;2022-08-19T02:50:46;100884.78;;;10.96;71.23
50292;BME280;36190;54.980;73.388;2022-08-19T02:53:14;100872.25;;;10.96;70.95
50292;BME280;36190;54.980;73.388;2022-08-19T02:55:45;100874.63;;;10.99;70.98
50292;BME280;36190;54.980;73.388;2022-08-19T02:58:14;100884.97;;;11.03;70.69
50292;BME280;36190;54.980;73.388;2022-08-19T03:00:43;100881.97;;;11.06;70.75
50292;BME280;36190;54.980;73.388;2022-08-19T03:03:12;100883.69;;;11.15;70.23
50292;BME280;36190;54.980;73.388;2022-08-19T03:05:40;100877.72;;;11.21;70.34
50292;BME280;36190;54.980;73.388;2022-08-19T03:08:08;100877.91;;;11.28;70.12
50292;BME280;36190;54.980;73.388;2022-08-19T03:10:41;100881.44;;;11.37;70.19
50292;BME280;36190;54.980;73.388;2022-08-19T03:13:12;100887.81;;;11.44;69.61
50292;BME280;36190;54.980;73.388;2022-08-19T03:15:41;100878.81;;;11.45;69.46
50292;BME280;36190;54.980;73.388;2022-08-19T03:18:11;100878.81;;;11.45;69.22
50292;BME280;36190;54.980;73.388;2022-08-19T03:20:43;100888.00;;;11.51;69.23
50292;BME280;36190;54.980;73.388;2022-08-19T03:23:11;100880.31;;;11.48;69.09
50292;BME280;36190;54.980;73.388;2022-08-19T03:25:40;100884.47;;;11.42;69.26
50292;BME280;36190;54.980;73.388;2022-08-19T03:28:09;100875.78;;;11.40;69.24
50292;BME280;36190;54.980;73.388;2022-08-19T03:30:36;100884.78;;;11.39;69.19
50292;BME280;36190;54.980;73.388;2022-08-19T03:33:05;100878.63;;;11.38;69.23
50292;BME280;36190;54.980;73.388;2022-08-19T03:35:34;100882.63;;;11.42;69.18
50292;BME280;36190;54.980;73.388;2022-08-19T03:38:02;100882.63;;;11.42;69.07
50292;BME280;36190;54.980;73.388;2022-08-19T03:40:30;100887.81;;;11.44;68.94
50292;BME280;36190;54.980;73.388;2022-08-19T03:42:57;100876.50;;;11.50;68.94
50292;BME280;36190;54.980;73.388;2022-08-19T03:45:24;100886.50;;;11.56;68.80
50292;BME280;36190;54.980;73.388;2022-08-19T03:47:53;100877.84;;;11.63;68.52
50292;BME280;36190;54.980;73.388;2022-08-19T03:50:20;100882.91;;;11.74;68.47
50292;BME280;36190;54.980;73.388;2022-08-19T03:52:50;100879.75;;;11.79;68.00
50292;BME280;36190;54.980;73.388;2022-08-19T03:55:18;100881.41;;;11.80;68.10
50292;BME280;36190;54.980;73.388;2022-08-19T03:57:45;100882.06;;;11.82;68.00
50292;BME280;36190;54.980;73.388;2022-08-19T04:00:15;100879.91;;;11.86;67.91
50292;BME280;36190;54.980;73.388;2022-08-19T04:02:42;100877.59;;;11.91;67.76
50292;BME280;36190;54.980;73.388;2022-08-19T04:05:10;100873.25;;;11.98;67.86
50292;BME280;36190;54.980;73.388;2022-08-19T04:07:38;100877.28;;;12.10;67.71
50292;BME280;36190;54.980;73.388;2022-08-19T04:10:07;100870.94;;;12.20;67.33
50292;BME280;36190;54.980;73.388;2022-08-19T04:12:35;100870.63;;;12.23;67.16
50292;BME280;36190;54.980;73.388;2022-08-19T04:15:03;100859.56;;;12.26;67.09
50292;BME280;36190;54.980;73.388;2022-08-19T04:17:31;100859.22;;;12.46;66.71
50292;BME280;36190;54.980;73.388;2022-08-19T04:19:59;100869.22;;;12.69;66.55
50292;BME280;36190;54.980;73.388;2022-08-19T04:22:27;100870.34;;;12.83;65.99
50292;BME280;36190;54.980;73.388;2022-08-19T04:24:55;100873.50;;;12.95;65.69
50292;BME280;36190;54.980;73.388;2022-08-19T04:27:24;100870.50;;;12.98;65.48
50292;BME280;36190;54.980;73.388;2022-08-19T04:29:52;100874.34;;;12.95;65.40
50292;BME280;36190;54.980;73.388;2022-08-19T04:32:19;100876.53;;;12.91;65.27
50292;BME280;36190;54.980;73.388;2022-08-19T04:34:47;100876.38;;;12.85;65.36
50292;BME280;36190;54.980;73.388;2022-08-19T04:37:15;100884.59;;;12.75;65.40
50292;BME280;36190;54.980;73.388;2022-08-19T04:39:42;100882.94;;;12.65;65.51
50292;BME280;36190;54.980;73.388;2022-08-19T04:42:28;100878.91;;;12.70;65.56
50292;BME280;36190;54.980;73.388;2022-08-19T04:45:09;100875.25;;;12.62;65.38
50292;BME280;36190;54.980;73.388;2022-08-19T04:47:37;100878.09;;;12.69;65.22
50292;BME280;36190;54.980;73.388;2022-08-19T04:50:06;100885.63;;;12.65;65.05
50292;BME280;36190;54.980;73.388;2022-08-19T04:52:33;100877.91;;;12.62;65.04
50292;BME280;36190;54.980;73.388;2022-08-19T04:55:01;100879.25;;;12.67;65.17
50292;BME280;36190;54.980;73.388;2022-08-19T04:57:30;100868.69;;;12.82;64.75
50292;BME280;36190;54.980;73.388;2022-08-19T04:59:57;100859.38;;;13.09;64.44
50292;BME280;36190;54.980;73.388;2022-08-19T05:02:24;100869.66;;;13.45;63.57
50292;BME280;36190;54.980;73.388;2022-08-19T05:04:56;100861.09;;;13.73;62.74
50292;BME280;36190;54.980;73.388;2022-08-19T05:07:26;100863.25;;;14.01;62.20
50292;BME280;36190;54.980;73.388;2022-08-19T05:09:53;100869.69;;;14.15;61.82
50292;BME280;36190;54.980;73.388;2022-08-19T05:12:21;100860.84;;;14.30;61.53
50292;BME280;36190;54.980;73.388;2022-08-19T05:14:50;100854.75;;;14.36;61.19
50292;BME280;36190;54.980;73.388;2022-08-19T05:17:17;100863.38;;;14.47;60.94
50292;BME280;36190;54.980;73.388;2022-08-19T05:19:45;100857.25;;;14.38;60.62
50292;BME280;36190;54.980;73.388;2022-08-19T05:22:29;100855.25;;;14.16;60.47
50292;BME280;36190;54.980;73.388;2022-08-19T05:25:05;100851.81;;;14.08;60.68
50292;BME280;36190;54.980;73.388;2022-08-19T05:27:33;100847.38;;;14.15;60.79
50292;BME280;36190;54.980;73.388;2022-08-19T05:30:03;100859.38;;;14.27;60.44
50292;BME280;36190;54.980;73.388;2022-08-19T05:32:31;100847.34;;;14.38;60.00
50292;BME280;36190;54.980;73.388;2022-08-19T05:34:58;100854.41;;;14.54;59.82
50292;BME280;36190;54.980;73.388;2022-08-19T05:37:26;100843.81;;;14.76;59.19
50292;BME280;36190;54.980;73.388;2022-08-19T05:39:54;100846.41;;;14.84;58.79
50292;BME280;36190;54.980;73.388;2022-08-19T05:42:22;100839.25;;;14.92;58.71
50292;BME280;36190;54.980;73.388;2022-08-19T05:44:50;100842.03;;;14.83;58.56
50292;BME280;36190;54.980;73.388;2022-08-19T05:47:19;100836.47;;;14.70;58.73
50292;BME280;36190;54.980;73.388;2022-08-19T05:49:47;100833.56;;;14.56;58.90
50292;BME280;36190;54.980;73.388;2022-08-19T05:52:15;100829.31;;;14.47;59.32
50292;BME280;36190;54.980;73.388;2022-08-19T05:54:43;100829.69;;;14.44;59.51
50292;BME280;36190;54.980;73.388;2022-08-19T05:57:14;100826.91;;;14.52;59.15
50292;BME280;36190;54.980;73.388;2022-08-19T05:59:42;100820.06;;;14.65;59.19
50292;BME280;36190;54.980;73.388;2022-08-19T06:02:09;100819.91;;;14.81;58.77
50292;BME280;36190;54.980;73.388;2022-08-19T06:04:38;100828.63;;;14.98;58.61
50292;BME280;36190;54.980;73.388;2022-08-19T06:07:08;100804.25;;;15.00;58.27
50292;BME280;36190;54.980;73.388;2022-08-19T06:09:36;100816.91;;;15.06;58.24
50292;BME280;36190;54.980;73.388;2022-08-19T06:12:04;100814.78;;;15.17;58.10
50292;BME280;36190;54.980;73.388;2022-08-19T06:14:33;100810.41;;;15.16;57.93
50292;BME280;36190;54.980;73.388;2022-08-19T06:17:01;100807.44;;;15.25;57.71
50292;BME280;36190;54.980;73.388;2022-08-19T06:19:30;100804.63;;;15.34;57.80
50292;BME280;36190;54.980;73.388;2022-08-19T06:22:00;100804.34;;;15.44;57.57
50292;BME280;36190;54.980;73.388;2022-08-19T06:24:28;100806.78;;;15.60;57.19
50292;BME280;36190;54.980;73.388;2022-08-19T06:26:58;100798.06;;;15.80;56.91
50292;BME280;36190;54.980;73.388;2022-08-19T06:29:26;100792.88;;;16.00;56.63
50292;BME280;36190;54.980;73.388;2022-08-19T06:31:57;100794.47;;;16.16;56.28
50292;BME280;36190;54.980;73.388;2022-08-19T06:34:26;100801.81;;;16.29;56.02
50292;BME280;36190;54.980;73.388;2022-08-19T06:36:55;100781.69;;;16.25;55.96
50292;BME280;36190;54.980;73.388;2022-08-19T06:39:26;100790.03;;;16.37;55.81
50292;BME280;36190;54.980;73.388;2022-08-19T06:41:56;100796.47;;;16.36;55.41
50292;BME280;36190;54.980;73.388;2022-08-19T06:44:26;100786.88;;;16.27;55.47
50292;BME280;36190;54.980;73.388;2022-08-19T06:46:54;100791.22;;;16.28;55.74
50292;BME280;36190;54.980;73.388;2022-08-19T06:49:22;100784.97;;;16.20;55.53
50292;BME280;36190;54.980;73.388;2022-08-19T06:51:53;100789.84;;;16.10;55.82
50292;BME280;36190;54.980;73.388;2022-08-19T06:54:24;100790.25;;;16.07;55.93
50292;BME280;36190;54.980;73.388;2022-08-19T06:56:52;100784.75;;;15.93;56.08
50292;BME280;36190;54.980;73.388;2022-08-19T06:59:21;100776.66;;;15.72;56.63
50292;BME280;36190;54.980;73.388;2022-08-19T07:01:50;100779.88;;;15.60;57.27
50292;BME280;36190;54.980;73.388;2022-08-19T07:04:19;100773.34;;;15.48;57.81
50292;BME280;36190;54.980;73.388;2022-08-19T07:06:47;100787.69;;;15.33;58.30
50292;BME280;36190;54.980;73.388;2022-08-19T07:09:17;100780.84;;;15.16;59.00
50292;BME280;36190;54.980;73.388;2022-08-19T07:11:48;100781.63;;;14.94;59.40
50292;BME280;36190;54.980;73.388;2022-08-19T07:14:17;100786.66;;;14.82;59.71
50292;BME280;36190;54.980;73.388;2022-08-19T07:16:46;100790.09;;;14.76;60.18
50292;BME280;36190;54.980;73.388;2022-08-19T07:19:14;100790.16;;;14.68;60.28
50292;BME280;36190;54.980;73.388;2022-08-19T07:21:42;100791.09;;;14.60;60.53
50292;BME280;36190;54.980;73.388;2022-08-19T07:24:09;100790.06;;;14.46;61.25
50292;BME280;36190;54.980;73.388;2022-08-19T07:26:40;100804.00;;;14.26;62.36
50292;BME280;36190;54.980;73.388;2022-08-19T07:29:10;100798.13;;;14.08;63.52
50292;BME280;36190;54.980;73.388;2022-08-19T07:31:38;100796.72;;;13.97;64.12
50292;BME280;36190;54.980;73.388;2022-08-19T07:34:10;100798.66;;;13.88;64.96
50292;BME280;36190;54.980;73.388;2022-08-19T07:36:41;100810.00;;;13.75;65.20
50292;BME280;36190;54.980;73.388;2022-08-19T07:39:11;100793.53;;;13.55;65.85
50292;BME280;36190;54.980;73.388;2022-08-19T07:41:39;100806.94;;;13.55;66.06
50292;BME280;36190;54.980;73.388;2022-08-19T07:44:09;100799.72;;;13.55;66.21
50292;BME280;36190;54.980;73.388;2022-08-19T07:46:40;100800.69;;;13.63;65.78
50292;BME280;36190;54.980;73.388;2022-08-19T07:49:08;100786.50;;;13.77;65.51
50292;BME280;36190;54.980;73.388;2022-08-19T07:51:43;100791.41;;;13.88;65.08
50292;BME280;36190;54.980;73.388;2022-08-19T07:54:10;100793.88;;;13.98;64.90
50292;BME280;36190;54.980;73.388;2022-08-19T07:56:38;100782.88;;;14.08;64.67
50292;BME280;36190;54.980;73.388;2022-08-19T07:59:05;100795.03;;;14.19;64.19
50292;BME280;36190;54.980;73.388;2022-08-19T08:01:35;100794.28;;;14.25;63.64
50292;BME280;36190;54.980;73.388;2022-08-19T08:04:05;100771.53;;;14.36;63.15
50292;BME280;36190;54.980;73.388;2022-08-19T08:06:50;100779.53;;;14.60;62.60
50292;BME280;36190;54.980;73.388;2022-08-19T08:09:38;100773.78;;;14.63;62.49
50292;BME280;36190;54.980;73.388;2022-08-19T08:12:09;100778.50;;;14.76;62.43
50292;BME280;36190;54.980;73.388;2022-08-19T08:14:40;100779.72;;;14.88;62.25
50292;BME280;36190;54.980;73.388;2022-08-19T08:17:10;100794.44;;;14.92;61.98
50292;BME280;36190;54.980;73.388;2022-08-19T08:19:38;100779.06;;;14.86;61.94
50292;BME280;36190;54.980;73.388;2022-08-19T08:22:07;100774.88;;;14.83;62.05
50292;BME280;36190;54.980;73.388;2022-08-19T08:24:55;100768.69;;;14.83;61.90
50292;BME280;36190;54.980;73.388;2022-08-19T08:27:24;100770.44;;;14.91;61.91
50292;BME280;36190;54.980;73.388;2022-08-19T08:29:55;100768.88;;;14.96;61.83
50292;BME280;36190;54.980;73.388;2022-08-19T08:32:23;100768.75;;;14.90;61.74
50292;BME280;36190;54.980;73.388;2022-08-19T08:34:52;100763.25;;;14.76;62.17
50292;BME280;36190;54.980;73.388;2022-08-19T08:37:19;100773.66;;;14.71;62.33
50292;BME280;36190;54.980;73.388;2022-08-19T08:39:48;100772.47;;;14.58;62.62
50292;BME280;36190;54.980;73.388;2022-08-19T08:42:20;100767.38;;;14.49;63.14
50292;BME280;36190;54.980;73.388;2022-08-19T08:44:56;100763.84;;;14.48;63.55
50292;BME280;36190;54.980;73.388;2022-08-19T08:47:30;100756.44;;;14.50;63.35
50292;BME280;36190;54.980;73.388;2022-08-19T08:50:03;100765.88;;;14.61;63.39
50292;BME280;36190;54.980;73.388;2022-08-19T08:52:34;100761.19;;;14.78;63.23
50292;BME280;36190;54.980;73.388;2022-08-19T08:55:07;100770.81;;;14.88;63.00
50292;BME280;36190;54.980;73.388;2022-08-19T08:57:38;100765.44;;;14.88;63.07
50292;BME280;36190;54.980;73.388;2022-08-19T09:00:09;100760.91;;;14.88;63.18
50292;BME280;36190;54.980;73.388;2022-08-19T09:02:39;100749.72;;;14.84;63.29
50292;BME280;36190;54.980;73.388;2022-08-19T09:05:08;100748.47;;;14.87;63.44
50292;BME280;36190;54.980;73.388;2022-08-19T09:07:42;100743.09;;;14.87;63.57
50292;BME280;36190;54.980;73.388;2022-08-19T09:10:18;100741.72;;;14.91;63.81
50292;BME280;36190;54.980;73.388;2022-08-19T09:12:54;100751.63;;;14.91;64.02
50292;BME280;36190;54.980;73.388;2022-08-19T09:15:29;100742.66;;;14.83;64.08
50292;BME280;36190;54.980;73.388;2022-08-19T09:18:01;100760.47;;;14.84;64.08
50292;BME280;36190;54.980;73.388;2022-08-19T09:20:29;100738.69;;;14.79;64.26
50292;BME280;36190;54.980;73.388;2022-08-19T09:22:58;100742.81;;;14.67;64.62
50292;BME280;36190;54.980;73.388;2022-08-19T09:25:25;100737.94;;;14.55;65.03
50292;BME280;36190;54.980;73.388;2022-08-19T09:27:54;100735.63;;;14.52;65.45
50292;BME280;36190;54.980;73.388;2022-08-19T09:30:23;100720.72;;;14.50;65.49
50292;BME280;36190;54.980;73.388;2022-08-19T09:32:52;100737.19;;;14.62;65.46
50292;BME280;36190;54.980;73.388;2022-08-19T09:35:23;100728.75;;;14.65;65.66
50292;BME280;36190;54.980;73.388;2022-08-19T09:37:51;100737.28;;;14.68;65.75
50292;BME280;36190;54.980;73.388;2022-08-19T09:40:19;100723.03;;;14.68;65.89
50292;BME280;36190;54.980;73.388;2022-08-19T09:42:47;100722.66;;;14.71;65.93
50292;BME280;36190;54.980;73.388;2022-08-19T09:45:15;100738.75;;;14.71;66.06
50292;BME280;36190;54.980;73.388;2022-08-19T09:47:43;100728.97;;;14.63;66.51
50292;BME280;36190;54.980;73.388;2022-08-19T09:50:12;100739.78;;;14.55;66.83
50292;BME280;36190;54.980;73.388;2022-08-19T09:52:41;100736.75;;;14.43;67.16
50292;BME280;36190;54.980;73.388;2022-08-19T09:55:09;100723.78;;;14.32;67.58
50292;BME280;36190;54.980;73.388;2022-08-19T09:57:38;100720.63;;;14.28;68.02
50292;BME280;36190;54.980;73.388;2022-08-19T10:00:07;100724.16;;;14.28;68.20
50292;BME280;36190;54.980;73.388;2022-08-19T10:02:35;100742.28;;;14.26;68.39
50292;BME280;36190;54.980;73.388;2022-08-19T10:05:03;100724.25;;;14.20;69.02
50292;BME280;36190;54.980;73.388;2022-08-19T10:07:50;100725.69;;;14.08;69.91
50292;BME280;36190;54.980;73.388;2022-08-19T10:10:18;100735.22;;;13.95;71.01
50292;BME280;36190;54.980;73.388;2022-08-19T10:12:45;100729.06;;;13.71;72.41
50292;BME280;36190;54.980;73.388;2022-08-19T10:15:13;100727.88;;;13.51;73.70
50292;BME280;36190;54.980;73.388;2022-08-19T10:17:41;100722.53;;;13.42;74.50
50292;BME280;36190;54.980;73.388;2022-08-19T10:20:09;100722.75;;;13.41;75.24
50292;BME280;36190;54.980;73.388;2022-08-19T10:22:36;100735.66;;;13.45;75.56
50292;BME280;36190;54.980;73.388;2022-08-19T10:25:07;100736.59;;;13.44;76.47
50292;BME280;36190;54.980;73.388;2022-08-19T10:27:34;100730.97;;;13.39;76.84
50292;BME280;36190;54.980;73.388;2022-08-19T10:30:03;100732.84;;;13.30;77.51
50292;BME280;36190;54.980;73.388;2022-08-19T10:32:32;100731.06;;;13.23;77.91
50292;BME280;36190;54.980;73.388;2022-08-19T10:34:59;100725.75;;;13.14;78.47
50292;BME280;36190;54.980;73.388;2022-08-19T10:37:27;100728.78;;;13.11;79.17
50292;BME280;36190;54.980;73.388;2022-08-19T10:39:56;100725.13;;;13.12;79.22
50292;BME280;36190;54.980;73.388;2022-08-19T10:42:25;100730.47;;;13.12;79.68
50292;BME280;36190;54.980;73.388;2022-08-19T10:44:52;100721.75;;;13.10;79.57
50292;BME280;36190;54.980;73.388;2022-08-19T10:47:20;100731.44;;;13.11;79.78
50292;BME280;36190;54.980;73.388;2022-08-19T10:49:48;100720.75;;;13.11;79.79
50292;BME280;36190;54.980;73.388;2022-08-19T10:52:33;100720.56;;;13.13;79.94
50292;BME280;36190;54.980;73.388;2022-08-19T10:55:01;100724.75;;;13.15;79.89
50292;BME280;36190;54.980;73.388;2022-08-19T10:57:47;100723.56;;;13.18;79.96
50292;BME280;36190;54.980;73.388;2022-08-19T11:00:15;100727.75;;;13.20;80.06
50292;BME280;36190;54.980;73.388;2022-08-19T11:02:42;100732.09;;;13.22;80.08
50292;BME280;36190;54.980;73.388;2022-08-19T11:05:10;100723.19;;;13.21;80.14
50292;BME280;36190;54.980;73.388;2022-08-19T11:07:38;100717.13;;;13.27;80.06
50292;BME280;36190;54.980;73.388;2022-08-19T11:10:06;100723.25;;;13.36;79.85
50292;BME280;36190;54.980;73.388;2022-08-19T11:12:36;100722.72;;;13.49;79.91
50292;BME280;36190;54.980;73.388;2022-08-19T11:15:07;100722.09;;;13.62;79.35
50292;BME280;36190;54.980;73.388;2022-08-19T11:17:36;100717.03;;;13.67;78.90
50292;BME280;36190;54.980;73.388;2022-08-19T11:20:09;100715.47;;;13.73;79.00
50292;BME280;36190;54.980;73.388;2022-08-19T11:22:38;100715.69;;;13.86;78.96
50292;BME280;36190;54.980;73.388;2022-08-19T11:25:06;100718.66;;;13.92;78.85
50292;BME280;36190;54.980;73.388;2022-08-19T11:27:37;100713.09;;;13.93;78.34
50292;BME280;36190;54.980;73.388;2022-08-19T11:30:08;100723.31;;;13.98;78.42
50292;BME280;36190;54.980;73.388;2022-08-19T11:32:35;100715.44;;;13.96;78.16
50292;BME280;36190;54.980;73.388;2022-08-19T11:35:03;100722.63;;;13.96;78.29
50292;BME280;36190;54.980;73.388;2022-08-19T11:37:30;100714.59;;;13.96;78.19
50292;BME280;36190;54.980;73.388;2022-08-19T11:40:03;100712.56;;;13.98;78.16
50292;BME280;36190;54.980;73.388;2022-08-19T11:42:31;100719.41;;;14.00;78.09
50292;BME280;36190;54.980;73.388;2022-08-19T11:45:17;100717.94;;;13.98;78.11
50292;BME280;36190;54.980;73.388;2022-08-19T11:47:45;100725.69;;;13.93;78.36
50292;BME280;36190;54.980;73.388;2022-08-19T11:50:13;100717.81;;;13.91;78.34
50292;BME280;36190;54.980;73.388;2022-08-19T11:52:40;100718.84;;;13.90;78.46
50292;BME280;36190;54.980;73.388;2022-08-19T11:55:08;100727.44;;;13.85;78.51
50292;BME280;36190;54.980;73.388;2022-08-19T11:57:37;100713.16;;;13.85;78.65
50292;BME280;36190;54.980;73.388;2022-08-19T12:00:07;100709.03;;;13.82;78.57
50292;BME280;36190;54.980;73.388;2022-08-19T12:02:37;100711.16;;;13.87;78.82
50292;BME280;36190;54.980;73.388;2022-08-19T12:05:05;100718.19;;;13.88;78.73
50292;BME280;36190;54.980;73.388;2022-08-19T12:07:33;100713.66;;;13.88;78.80
50292;BME280;36190;54.980;73.388;2022-08-19T12:10:01;100718.84;;;13.90;79.22
50292;BME280;36190;54.980;73.388;2022-08-19T12:12:29;100718.66;;;13.92;79.42
50292;BME280;36190;54.980;73.388;2022-08-19T12:14:57;100719.13;;;13.95;79.48
50292;BME280;36190;54.980;73.388;2022-08-19T12:17:25;100722.84;;;13.94;79.32
50292;BME280;36190;54.980;73.388;2022-08-19T12:19:54;100716.59;;;13.79;79.76
50292;BME280;36190;54.980;73.388;2022-08-19T12:22:21;100717.03;;;13.67;80.09
50292;BME280;36190;54.980;73.388;2022-08-19T12:24:49;100717.72;;;13.61;80.48
50292;BME280;36190;54.980;73.388;2022-08-19T12:27:18;100721.16;;;13.55;80.57
50292;BME280;36190;54.980;73.388;2022-08-19T12:29:46;100728.25;;;13.47;80.83
50292;BME280;36190;54.980;73.388;2022-08-19T12:32:15;100728.25;;;13.47;81.14
50292;BME280;36190;54.980;73.388;2022-08-19T12:34:42;100715.50;;;13.50;81.14
50292;BME280;36190;54.980;73.388;2022-08-19T12:37:11;100712.28;;;13.54;80.98
50292;BME280;36190;54.980;73.388;2022-08-19T12:39:40;100712.03;;;13.64;80.72
50292;BME280;36190;54.980;73.388;2022-08-19T12:42:09;100710.88;;;13.82;80.28
50292;BME280;36190;54.980;73.388;2022-08-19T12:44:36;100706.06;;;13.92;80.06
50292;BME280;36190;54.980;73.388;2022-08-19T12:47:06;100708.75;;;13.92;79.93
50292;BME280;36190;54.980;73.388;2022-08-19T12:49:34;100710.22;;;13.80;80.19
50292;BME280;36190;54.980;73.388;2022-08-19T12:52:03;100711.00;;;13.65;80.60